Vandalia, Indiana
Current Conditions -  °F | °C
As of 6:53 AM on Sunday 23 Nov 2014 (Local Time) from KBMG Reporting Station
Broken Clouds Broken Clouds  
Wind Chill: 45°   Ceiling: 2200
Heat Index: 49°   Visibility: 10mi
Dew Point: 41°   Wind: 9mph
Humidity: 74%   Direction: 150°SSE
Pressure: 29.92"   Gusts: NA
Location:  39.3008°N, 86.8112°W
Report Text: KBMG 231153Z 15008KT 10SM BKN022 BKN040 BKN090 09/05 A2992 RMK AO2 SLP132 60000 T00940050 10117 20089 55007
Loading
Personal Weather Stations






























Interactive Weather Map New forecast layout! Learn more

10-Day Weather Forecast

Advertisements
Track Severe Weather on mobile